Time;durP1;ratioP1;P1;durP2;ratioP2;P2;SDS_P1;SDS_P2;PMS_P1;PMS_P2;Temp;Humidity;BMP_temperature;BMP_pressure;BME280_temperature;BME280_humidity;BME280_pressure;Samples;Min_cycle;Max_cycle;Signal;HPM_P1;HPM_P2
2023/06/06 00:00:24;;;;;;;;;;;;;;;19.90;34.33;101926.41;7350333;19;20636;-56
2023/06/06 00:02:49;;;;;;;;;;;;;;;19.85;34.60;101927.53;7346831;19;19919;-56
2023/06/06 00:05:15;;;;;;;;;;;;;;;19.79;34.88;101923.34;7354905;19;19930;-56
2023/06/06 00:07:42;;;;;;;;;;;;;;;19.74;34.52;101940.38;7356725;19;19950;-56
2023/06/06 00:10:08;;;;;;;;;;;;;;;19.68;35.02;101936.19;7357100;19;19923;-56
2023/06/06 00:12:34;;;;;;;;;;;;;;;19.63;34.88;101930.22;7356662;19;20359;-56
2023/06/06 00:14:59;;;;;;;;;;;;;;;19.57;35.25;101933.09;7357805;19;19926;-56
2023/06/06 00:17:25;;;;;;;;;;;;;;;19.53;35.30;101934.13;7354654;19;19919;-56
2023/06/06 00:19:52;;;;;;;;;;;;;;;19.48;35.50;101934.31;7358414;19;19954;-56
2023/06/06 00:22:20;;;;;;;;;;;;;;;19.44;35.16;101933.56;7358820;19;19945;-56
2023/06/06 00:24:45;;;;;;;;;;;;;;;19.40;35.54;101934.59;7352899;19;19947;-56
2023/06/06 00:27:11;;;;;;;;;;;;;;;19.36;35.70;101929.50;7357703;19;19919;-56
2023/06/06 00:29:36;;;;;;;;;;;;;;;19.32;35.59;101934.06;7354651;19;19915;-56
2023/06/06 00:32:01;;;;;;;;;;;;;;;19.28;35.64;101932.47;7358541;19;20554;-56
2023/06/06 00:34:27;;;;;;;;;;;;;;;19.24;35.76;101935.28;7355019;19;20746;-57
2023/06/06 00:36:52;;;;;;;;;;;;;;;19.21;35.96;101941.59;7352622;19;19943;-56
2023/06/06 00:39:17;;;;;;;;;;;;;;;19.17;36.04;101939.97;7354397;19;19921;-56
2023/06/06 00:41:43;;;;;;;;;;;;;;;19.13;35.79;101933.06;7354019;19;19950;-57
2023/06/06 00:44:08;;;;;;;;;;;;;;;19.10;35.95;101933.16;7352092;19;19965;-56
2023/06/06 00:46:33;;;;;;;;;;;;;;;19.08;36.06;101935.03;7356263;19;20558;-57
2023/06/06 00:48:58;;;;;;;;;;;;;;;19.04;36.12;101928.13;7355201;19;19935;-56
2023/06/06 00:51:24;;;;;;;;;;;;;;;19.01;35.85;101933.50;7351181;19;19914;-56
2023/06/06 00:53:50;;;;;;;;;;;;;;;18.97;36.34;101932.78;7355999;19;19927;-56
2023/06/06 00:56:16;;;;;;;;;;;;;;;18.92;36.27;101925.03;7355308;19;19926;-56
2023/06/06 00:58:42;;;;;;;;;;;;;;;18.89;36.31;101924.25;7354450;19;19923;-56
2023/06/06 01:01:10;;;;;;;;;;;;;;;18.86;36.40;101927.03;7350575;19;19951;-56
2023/06/06 01:03:35;;;;;;;;;;;;;;;18.83;36.42;101925.38;7353960;19;19919;-56
2023/06/06 01:06:01;;;;;;;;;;;;;;;18.81;36.94;101936.94;7353280;19;19929;-56
2023/06/06 01:08:26;;;;;;;;;;;;;;;18.77;37.02;101930.03;7356852;19;19938;-56
2023/06/06 01:10:55;;;;;;;;;;;;;;;18.74;36.68;101936.28;7347746;19;19957;-56
2023/06/06 01:13:24;;;;;;;;;;;;;;;18.71;37.06;101931.13;7354841;19;20356;-56
2023/06/06 01:15:55;;;;;;;;;;;;;;;18.68;36.61;101931.22;7356705;19;19930;-56
2023/06/06 01:18:21;;;;;;;;;;;;;;;18.65;36.81;101931.28;7350254;19;19954;-56
2023/06/06 01:20:47;;;;;;;;;;;;;;;18.61;36.71;101929.72;7356308;19;20422;-56
2023/06/06 01:23:12;;;;;;;;;;;;;;;18.58;36.69;101929.81;7355777;19;19918;-56
2023/06/06 01:25:40;;;;;;;;;;;;;;;18.55;36.95;101929.91;7351872;19;20643;-56
2023/06/06 01:28:12;;;;;;;;;;;;;;;18.51;37.02;101923.03;7353827;19;20272;-56
2023/06/06 01:30:38;;;;;;;;;;;;;;;18.49;37.13;101919.56;7353926;19;19923;-55
2023/06/06 01:33:10;;;;;;;;;;;;;;;18.44;37.25;101925.00;7354770;19;19930;-56
2023/06/06 01:35:42;;;;;;;;;;;;;;;18.41;37.19;101923.34;7355096;19;20429;-56
2023/06/06 01:38:12;;;;;;;;;;;;;;;18.38;36.92;101922.59;7351417;19;19986;-56
2023/06/06 01:40:39;;;;;;;;;;;;;;;18.35;37.49;101920.94;7355257;19;19923;-57
2023/06/06 01:43:06;;;;;;;;;;;;;;;18.32;37.36;101918.38;7354371;19;19938;-56
2023/06/06 01:45:33;;;;;;;;;;;;;;;18.28;37.31;101916.75;7355455;19;20685;-56
2023/06/06 01:47:59;;;;;;;;;;;;;;;18.26;37.55;101929.19;7352700;19;19949;-58
2023/06/06 01:50:25;;;;;;;;;;;;;;;18.22;37.52;101930.19;7355110;19;19943;-56
2023/06/06 01:52:53;;;;;;;;;;;;;;;18.20;37.66;101931.16;7354359;19;19986;-56
2023/06/06 01:55:19;;;;;;;;;;;;;;;18.17;37.75;101924.22;7347273;19;19944;-56
2023/06/06 01:57:45;;;;;;;;;;;;;;;18.14;38.21;101919.03;7350402;19;20206;-56
2023/06/06 02:00:12;;;;;;;;;;;;;;;18.11;38.08;101921.78;7289749;19;19922;-55
2023/06/06 02:02:37;;;;;;;;;;;;;;;18.08;37.91;101921.88;7300679;19;19927;-56
2023/06/06 02:05:03;;;;;;;;;;;;;;;17.79;37.97;101881.47;7309178;19;19925;-56
2023/06/06 02:07:29;;;;;;;;;;;;;;;18.02;38.21;101917.66;7310011;19;19926;-56
2023/06/06 02:09:54;;;;;;;;;;;;;;;17.98;38.39;101923.13;7346457;19;20611;-55
2023/06/06 02:12:19;;;;;;;;;;;;;;;17.95;38.20;101923.25;7353535;19;19926;-54
2023/06/06 02:14:45;;;;;;;;;;;;;;;17.91;38.42;101922.47;7350029;19;19923;-56
2023/06/06 02:17:11;;;;;;;;;;;;;;;17.89;38.48;101919.00;7350504;19;19918;-54
2023/06/06 02:19:36;;;;;;;;;;;;;;;17.83;38.20;101909.50;7349089;19;19984;-56
2023/06/06 02:22:01;;;;;;;;;;;;;;;17.80;38.38;101922.81;7354452;19;19922;-56
2023/06/06 02:24:27;;;;;;;;;;;;;;;17.76;38.30;101918.56;7356686;19;21152;-57
2023/06/06 02:26:53;;;;;;;;;;;;;;;17.71;38.39;101909.88;7359189;19;19926;-56
2023/06/06 02:29:19;;;;;;;;;;;;;;;17.67;38.52;101913.53;7352793;19;19947;-57
2023/06/06 02:31:44;;;;;;;;;;;;;;;17.62;38.15;101916.31;7355550;19;19930;-56
2023/06/06 02:34:10;;;;;;;;;;;;;;;17.57;38.22;101918.25;7357434;19;20455;-56
2023/06/06 02:36:35;;;;;;;;;;;;;;;17.54;38.47;101920.16;7352833;19;20014;-56
2023/06/06 02:39:00;;;;;;;;;;;;;;;17.49;38.54;101925.56;7357779;19;19939;-56
2023/06/06 02:41:26;;;;;;;;;;;;;;;17.45;38.49;101923.09;7356667;19;19926;-55
2023/06/06 02:43:51;;;;;;;;;;;;;;;17.42;38.56;101915.25;7352814;19;19938;-55
2023/06/06 02:46:16;;;;;;;;;;;;;;;17.37;38.68;101913.59;7357448;19;20609;-56
2023/06/06 02:48:47;;;;;;;;;;;;;;;17.34;38.56;101916.38;7359323;19;20535;-56
2023/06/06 02:51:12;;;;;;;;;;;;;;;17.29;38.49;101923.56;7359057;19;19934;-57
2023/06/06 02:53:40;;;;;;;;;;;;;;;17.26;38.61;101922.78;7338048;19;19926;-56
2023/06/06 02:56:06;;;;;;;;;;;;;;;17.21;38.72;101915.00;7355600;19;19927;-56
2023/06/06 02:58:32;;;;;;;;;;;;;;;17.17;38.40;101913.38;7354351;19;20755;-56
2023/06/06 03:00:58;;;;;;;;;;;;;;;17.14;38.91;101907.34;7358869;19;19956;-56
2023/06/06 03:03:24;;;;;;;;;;;;;;;17.08;38.87;101914.53;7359722;19;20688;-56
2023/06/06 03:05:51;;;;;;;;;;;;;;;17.05;38.50;101905.84;7341195;19;20867;-56
2023/06/06 03:08:19;;;;;;;;;;;;;;;17.01;38.59;101906.84;7358068;19;19919;-56
2023/06/06 03:10:48;;;;;;;;;;;;;;;16.96;38.67;101903.47;7354500;19;20649;-56
2023/06/06 03:13:14;;;;;;;;;;;;;;;16.93;38.83;101898.28;7361686;19;19935;-56
2023/06/06 03:15:40;;;;;;;;;;;;;;;16.88;38.38;101900.19;7358384;19;19923;-56
2023/06/06 03:18:09;;;;;;;;;;;;;;;16.82;38.46;101901.22;7358308;19;19923;-55
2023/06/06 03:20:41;;;;;;;;;;;;;;;16.78;38.46;101899.63;7358470;19;19930;-56
2023/06/06 03:23:08;;;;;;;;;;;;;;;16.72;39.05;101905.91;7359604;19;19956;-55
2023/06/06 03:25:33;;;;;;;;;;;;;;;16.68;38.85;101890.22;7353548;19;20286;-56
2023/06/06 03:27:59;;;;;;;;;;;;;;;16.64;38.72;101886.78;7360198;19;19927;-56
2023/06/06 03:30:24;;;;;;;;;;;;;;;16.61;38.98;101889.50;7356378;19;20347;-56
2023/06/06 03:32:50;;;;;;;;;;;;;;;16.57;38.62;101891.38;7361670;19;19927;-56
2023/06/06 03:35:17;;;;;;;;;;;;;;;16.54;39.10;101885.31;7355555;19;20253;-56
2023/06/06 03:37:42;;;;;;;;;;;;;;;16.51;38.81;101893.31;7358829;19;19925;-56
2023/06/06 03:40:08;;;;;;;;;;;;;;;16.47;39.18;101889.03;7357678;19;19922;-56
2023/06/06 03:42:33;;;;;;;;;;;;;;;16.44;38.87;101883.88;7358815;19;19918;-56
2023/06/06 03:44:59;;;;;;;;;;;;;;;16.40;38.89;101883.06;7359718;19;19922;-54
2023/06/06 03:47:24;;;;;;;;;;;;;;;16.37;39.20;101882.28;7358833;19;19935;-56
2023/06/06 03:49:49;;;;;;;;;;;;;;;16.33;39.35;101879.75;7360426;19;20439;-56
2023/06/06 03:52:14;;;;;;;;;;;;;;;16.29;38.92;101875.47;7357655;19;19918;-56
2023/06/06 03:54:41;;;;;;;;;;;;;;;16.27;39.06;101872.03;7357058;19;19923;-56
2023/06/06 03:57:08;;;;;;;;;;;;;;;16.25;39.39;101875.59;7358679;19;19954;-56
2023/06/06 03:59:34;;;;;;;;;;;;;;;16.21;39.16;101872.16;7356469;19;21111;-56
2023/06/06 04:01:59;;;;;;;;;;;;;;;16.19;39.58;101876.63;7357490;19;19970;-55
2023/06/06 04:04:25;;;;;;;;;;;;;;;16.17;39.67;101872.28;7357686;19;19919;-58
2023/06/06 04:06:50;;;;;;;;;;;;;;;16.15;39.51;101871.47;7359164;19;19940;-55
2023/06/06 04:09:16;;;;;;;;;;;;;;;16.11;39.73;101878.59;7355589;19;19923;-55
2023/06/06 04:11:41;;;;;;;;;;;;;;;16.11;39.51;101875.97;7360137;19;19933;-56
2023/06/06 04:14:07;;;;;;;;;;;;;;;16.07;39.83;101875.19;7358010;19;19929;-55
2023/06/06 04:16:32;;;;;;;;;;;;;;;16.05;39.49;101877.00;7362426;19;19930;-55
2023/06/06 04:18:57;;;;;;;;;;;;;;;16.04;39.51;101880.53;7353379;19;20924;-56
2023/06/06 04:21:22;;;;;;;;;;;;;;;16.01;39.61;101879.75;7358327;19;19938;-55
2023/06/06 04:23:48;;;;;;;;;;;;;;;15.99;39.61;101871.03;7353883;19;20312;-55
2023/06/06 04:26:26;;;;;;;;;;;;;;;15.98;39.55;101879.84;7358040;19;19923;-55
2023/06/06 04:28:58;;;;;;;;;;;;;;;15.96;40.03;101873.72;7357195;19;20694;-55
2023/06/06 04:31:24;;;;;;;;;;;;;;;15.94;39.64;101880.81;7357227;19;20433;-55
2023/06/06 04:33:53;;;;;;;;;;;;;;;15.92;39.64;101875.59;7359082;19;20419;-56
2023/06/06 04:36:27;;;;;;;;;;;;;;;15.91;39.96;101878.25;7357611;19;19923;-55
2023/06/06 04:38:53;;;;;;;;;;;;;;;15.89;40.10;101880.94;7359104;19;19942;-56
2023/06/06 04:41:22;;;;;;;;;;;;;;;15.89;39.85;101880.09;7356545;19;19923;-56
2023/06/06 04:43:49;;;;;;;;;;;;;;;15.88;39.80;101883.63;7354390;19;19924;-55
2023/06/06 04:46:23;;;;;;;;;;;;;;;15.87;39.92;101888.03;7356545;19;19937;-56
2023/06/06 04:48:53;;;;;;;;;;;;;;;15.86;40.42;101874.88;7357902;19;19923;-55
2023/06/06 04:51:18;;;;;;;;;;;;;;;15.86;39.94;101885.41;7357221;19;19918;-55
2023/06/06 04:53:45;;;;;;;;;;;;;;;15.84;40.41;101877.56;7357189;19;19935;-55
2023/06/06 04:56:11;;;;;;;;;;;;;;;15.85;40.28;101883.69;7355959;19;19930;-55
2023/06/06 04:58:37;;;;;;;;;;;;;;;15.84;40.30;101877.56;7357900;19;19918;-55
2023/06/06 05:01:02;;;;;;;;;;;;;;;15.85;40.20;101881.06;7350798;19;19923;-55
2023/06/06 05:03:27;;;;;;;;;;;;;;;15.85;40.61;101883.69;7355397;19;19938;-56
2023/06/06 05:05:53;;;;;;;;;;;;;;;15.85;40.38;101884.56;7355017;19;19934;-54
2023/06/06 05:08:19;;;;;;;;;;;;;;;15.86;40.49;101890.69;7357086;19;19922;-55
2023/06/06 05:10:44;;;;;;;;;;;;;;;15.85;40.52;101884.56;7353179;19;19923;-58
2023/06/06 05:13:09;;;;;;;;;;;;;;;15.87;40.24;101887.16;7355224;19;19927;-58
2023/06/06 05:15:35;;;;;;;;;;;;;;;15.87;40.67;101887.16;7353666;19;19958;-58
2023/06/06 05:18:00;;;;;;;;;;;;;;;15.88;40.58;101888.91;7358515;19;20658;-58
2023/06/06 05:20:25;;;;;;;;;;;;;;;15.89;40.87;101882.72;7357114;19;19918;-58
2023/06/06 05:22:51;;;;;;;;;;;;;;;15.90;40.59;101887.06;7358189;19;20260;-57
2023/06/06 05:25:16;;;;;;;;;;;;;;;15.91;40.80;101888.78;7357477;19;19938;-57
2023/06/06 05:27:41;;;;;;;;;;;;;;;15.92;40.67;101882.66;7350876;19;19978;-58
2023/06/06 05:30:07;;;;;;;;;;;;;;;15.94;40.48;101894.00;7358915;19;19935;-58
2023/06/06 05:32:32;;;;;;;;;;;;;;;15.96;40.64;101889.53;7353786;19;20809;-58
2023/06/06 05:35:03;;;;;;;;;;;;;;;15.98;40.78;101885.13;7357427;19;19926;-58
2023/06/06 05:37:28;;;;;;;;;;;;;;;16.00;40.37;101883.28;7353370;19;19918;-56
2023/06/06 05:39:53;;;;;;;;;;;;;;;16.04;40.68;101887.59;7357805;19;21213;-55
2023/06/06 05:42:19;;;;;;;;;;;;;;;16.06;40.29;101891.88;7354808;19;19927;-53
2023/06/06 05:44:44;;;;;;;;;;;;;;;16.07;40.56;101883.09;7355305;19;19919;-55
2023/06/06 05:47:09;;;;;;;;;;;;;;;16.12;40.67;101882.09;7354721;19;19918;-55
2023/06/06 05:49:35;;;;;;;;;;;;;;;16.14;40.54;101886.44;7355639;19;19918;-55
2023/06/06 05:52:01;;;;;;;;;;;;;;;16.17;40.89;101886.34;7356402;19;20484;-55
2023/06/06 05:54:26;;;;;;;;;;;;;;;16.20;40.40;101891.53;7357632;19;19948;-54
2023/06/06 05:56:52;;;;;;;;;;;;;;;16.24;40.45;101893.19;7350791;19;19926;-54
2023/06/06 05:59:17;;;;;;;;;;;;;;;16.27;40.07;101887.84;7343980;19;19933;-55
2023/06/06 06:01:43;;;;;;;;;;;;;;;16.30;40.14;101895.63;7353429;19;19915;-55
2023/06/06 06:04:09;;;;;;;;;;;;;;;16.35;40.59;101901.66;7352272;19;19923;-56
2023/06/06 06:06:35;;;;;;;;;;;;;;;16.39;40.55;101901.59;7349016;19;19930;-56
2023/06/06 06:09:02;;;;;;;;;;;;;;;16.42;40.57;101907.59;7354224;19;19919;-56
2023/06/06 06:11:27;;;;;;;;;;;;;;;16.46;40.45;101903.13;7355613;19;19922;-56
2023/06/06 06:13:52;;;;;;;;;;;;;;;16.50;40.51;101907.41;7355139;19;19922;-55
2023/06/06 06:16:18;;;;;;;;;;;;;;;16.54;40.10;101901.16;7353443;19;20595;-55
2023/06/06 06:18:43;;;;;;;;;;;;;;;16.58;40.04;101902.81;7353840;19;19941;-55
2023/06/06 06:21:08;;;;;;;;;;;;;;;16.61;40.39;101907.97;7353199;19;20352;-55
2023/06/06 06:23:33;;;;;;;;;;;;;;;16.66;40.23;101907.84;7352792;19;19918;-56
2023/06/06 06:25:59;;;;;;;;;;;;;;;16.71;40.34;101904.19;7353830;19;19915;-56
2023/06/06 06:28:25;;;;;;;;;;;;;;;16.75;40.00;101902.34;7353399;19;19927;-55
2023/06/06 06:30:50;;;;;;;;;;;;;;;16.79;40.05;101907.47;7351087;19;19919;-56
2023/06/06 06:33:16;;;;;;;;;;;;;;;16.83;40.17;101903.84;7349919;19;20335;-55
2023/06/06 06:35:42;;;;;;;;;;;;;;;16.89;40.45;101907.22;7352742;19;19930;-55
2023/06/06 06:38:07;;;;;;;;;;;;;;;16.93;40.26;101901.81;7352461;19;19927;-54
2023/06/06 06:40:32;;;;;;;;;;;;;;;16.98;40.02;101906.91;7330646;19;20000;-56
2023/06/06 06:42:58;;;;;;;;;;;;;;;17.03;39.82;101905.91;7349253;19;19986;-56
2023/06/06 06:45:23;;;;;;;;;;;;;;;17.08;39.97;101905.72;7354266;19;19934;-54
2023/06/06 06:47:49;;;;;;;;;;;;;;;17.14;40.43;101907.34;7352185;19;19951;-55
2023/06/06 06:50:14;;;;;;;;;;;;;;;17.19;40.20;101901.00;7345924;19;19926;-56
2023/06/06 06:52:40;;;;;;;;;;;;;;;17.24;40.75;101901.72;7351624;19;19925;-56
2023/06/06 06:55:07;;;;;;;;;;;;;;;17.28;40.53;101900.69;7349633;19;20000;-55
2023/06/06 06:57:33;;;;;;;;;;;;;;;17.35;39.96;101907.53;7352231;19;20022;-55
2023/06/06 07:00:00;;;;;;;;;;;;;;;17.39;41.05;101905.66;7350785;19;20036;-56
2023/06/06 07:02:28;;;;;;;;;;;;;;;17.45;41.06;101912.53;7352521;19;19915;-56
2023/06/06 07:04:54;;;;;;;;;;;;;;;17.50;41.23;101905.31;7350363;19;19938;-56
2023/06/06 07:07:20;;;;;;;;;;;;;;;17.55;41.58;101908.66;7352709;19;19919;-55
2023/06/06 07:09:46;;;;;;;;;;;;;;;17.58;40.91;101914.69;7356205;19;19943;-54
2023/06/06 07:12:11;;;;;;;;;;;;;;;17.65;41.40;101907.44;7360436;19;19919;-55
2023/06/06 07:14:37;;;;;;;;;;;;;;;17.69;41.40;101911.72;7353784;19;19935;-55
2023/06/06 07:17:03;;;;;;;;;;;;;;;17.74;41.94;101920.41;7357319;19;19911;-56
2023/06/06 07:19:28;;;;;;;;;;;;;;;17.79;41.46;101923.75;7356361;19;20480;-56
2023/06/06 07:21:54;;;;;;;;;;;;;;;17.84;41.59;101924.47;7357369;19;20006;-56
2023/06/06 07:24:20;;;;;;;;;;;;;;;17.89;41.72;101924.28;7354918;19;20785;-56
2023/06/06 07:26:46;;;;;;;;;;;;;;;17.93;41.43;101920.63;7353366;19;19939;-56
2023/06/06 07:29:11;;;;;;;;;;;;;;;17.97;41.05;101916.97;7353340;19;19926;-56
2023/06/06 07:31:37;;;;;;;;;;;;;;;18.01;41.43;101923.03;7355676;19;19926;-56
2023/06/06 07:34:02;;;;;;;;;;;;;;;18.05;40.54;101916.72;7353394;19;19923;-56
2023/06/06 07:36:29;;;;;;;;;;;;;;;18.08;41.57;101916.59;7352320;19;20776;-55
2023/06/06 07:38:54;;;;;;;;;;;;;;;18.10;41.41;101922.72;7356580;19;19927;-55
2023/06/06 07:41:21;;;;;;;;;;;;;;;18.14;41.22;101919.03;7356045;19;20015;-56
2023/06/06 07:43:47;;;;;;;;;;;;;;;18.17;41.42;101918.06;7358009;19;19949;-56
2023/06/06 07:46:12;;;;;;;;;;;;;;;18.19;41.72;101914.44;7352966;19;19919;-56
2023/06/06 07:48:37;;;;;;;;;;;;;;;18.22;41.18;101922.28;7354924;19;19942;-57
2023/06/06 07:51:03;;;;;;;;;;;;;;;18.26;41.05;101918.59;7354529;19;20026;-56
2023/06/06 07:53:28;;;;;;;;;;;;;;;18.27;41.43;101928.25;7355901;19;19918;-56
2023/06/06 07:55:53;;;;;;;;;;;;;;;18.30;41.96;101930.81;7354737;19;19984;-56
2023/06/06 07:58:25;;;;;;;;;;;;;;;18.34;41.18;101929.75;7354103;19;19927;-56
2023/06/06 08:00:50;;;;;;;;;;;;;;;18.37;41.50;101924.38;7354869;19;20620;-57
2023/06/06 08:03:16;;;;;;;;;;;;;;;18.40;41.02;101926.91;7357514;19;19936;-57
2023/06/06 08:05:41;;;;;;;;;;;;;;;18.44;41.17;101926.78;7352754;19;19975;-57
2023/06/06 08:08:06;;;;;;;;;;;;;;;18.48;41.33;101925.78;7355591;19;20336;-56
2023/06/06 08:10:32;;;;;;;;;;;;;;;18.50;41.65;101927.44;7354269;19;19946;-58
2023/06/06 08:12:57;;;;;;;;;;;;;;;18.54;42.01;101928.19;7337414;19;19947;-57
2023/06/06 08:15:23;;;;;;;;;;;;;;;18.56;42.21;101931.66;7352639;19;20453;-57
2023/06/06 08:17:48;;;;;;;;;;;;;;;18.61;41.17;101927.06;7352305;19;20617;-57
2023/06/06 08:20:13;;;;;;;;;;;;;;;18.65;41.65;101931.28;7352355;19;25091;-56
2023/06/06 08:22:47;;;;;;;;;;;;;;;18.36;41.96;101882.97;7354902;19;19923;-56
2023/06/06 08:25:12;;;;;;;;;;;;;;;18.74;40.02;101944.22;7353050;19;19925;-57
2023/06/06 08:27:38;;;;;;;;;;;;;;;18.79;40.68;101941.41;7358255;19;19927;-57
2023/06/06 08:30:04;;;;;;;;;;;;;;;18.81;41.06;101943.09;7353461;19;20030;-57
2023/06/06 08:32:32;;;;;;;;;;;;;;;18.84;40.62;101942.97;7359804;19;25445;-57
2023/06/06 08:34:57;;;;;;;;;;;;;;;18.87;41.57;101945.50;7356031;19;19914;-56
2023/06/06 08:37:22;;;;;;;;;;;;;;;18.89;41.84;101946.31;7354190;19;20229;-57
2023/06/06 08:39:50;;;;;;;;;;;;;;;18.92;41.28;101947.97;7351302;19;19914;-57
2023/06/06 08:42:17;;;;;;;;;;;;;;;18.97;40.44;101950.47;7355127;19;19946;-56
2023/06/06 08:44:42;;;;;;;;;;;;;;;18.99;41.13;101946.81;7355591;19;20024;-56
2023/06/06 08:47:08;;;;;;;;;;;;;;;19.03;40.39;101950.22;7352995;19;19923;-57
2023/06/06 08:49:36;;;;;;;;;;;;;;;19.06;40.59;101952.72;7355344;19;19940;-57
2023/06/06 08:52:02;;;;;;;;;;;;;;;19.09;40.20;101947.34;7354832;19;20458;-56
2023/06/06 08:54:27;;;;;;;;;;;;;;;19.12;41.43;101948.09;7353791;19;20020;-56
2023/06/06 08:56:54;;;;;;;;;;;;;;;19.16;41.32;101948.84;7353782;19;20318;-57
2023/06/06 08:59:20;;;;;;;;;;;;;;;19.20;40.54;101955.72;7343535;19;20424;-57
2023/06/06 09:01:47;;;;;;;;;;;;;;;19.24;40.81;101954.69;7354260;19;19919;-56
2023/06/06 09:04:15;;;;;;;;;;;;;;;19.27;40.76;101957.22;7355843;19;19939;-57
2023/06/06 09:06:43;;;;;;;;;;;;;;;19.31;40.67;101958.84;7351123;19;19933;-57
2023/06/06 09:09:09;;;;;;;;;;;;;;;19.34;40.42;101958.69;7353353;19;20655;-57
2023/06/06 09:11:35;;;;;;;;;;;;;;;19.40;40.76;101957.59;7351764;19;19923;-56
2023/06/06 09:14:00;;;;;;;;;;;;;;;19.42;41.20;101956.63;7352581;19;20617;-57
2023/06/06 09:16:26;;;;;;;;;;;;;;;19.46;40.95;101957.34;7332370;19;20968;-57
2023/06/06 09:18:51;;;;;;;;;;;;;;;19.49;40.75;101962.53;7355134;19;19923;-56
2023/06/06 09:21:17;;;;;;;;;;;;;;;19.53;40.29;101968.56;7353482;19;19953;-57
2023/06/06 09:23:42;;;;;;;;;;;;;;;19.55;41.07;101954.31;7352838;19;19933;-57
2023/06/06 09:26:18;;;;;;;;;;;;;;;19.59;40.74;101969.22;7355129;19;19923;-57
2023/06/06 09:28:44;;;;;;;;;;;;;;;19.66;41.33;101967.19;7352833;19;20654;-57
2023/06/06 09:31:30;;;;;;;;;;;;;;;19.77;40.39;101969.38;7354658;19;19939;-56
2023/06/06 09:33:56;;;;;;;;;;;;;;;20.00;40.52;101963.16;7253648;19;2004294;-57
2023/06/06 09:36:23;;;;;;;;;;;;;;;20.19;41.41;101974.72;7350767;19;19935;-57
2023/06/06 09:38:52;;;;;;;;;;;;;;;20.39;41.15;101979.16;7354196;19;19926;-57
2023/06/06 09:41:17;;;;;;;;;;;;;;;20.62;41.01;101964.91;7349264;19;19915;-57
2023/06/06 09:43:43;;;;;;;;;;;;;;;20.85;40.98;101961.22;7352468;19;19915;-57
2023/06/06 09:46:08;;;;;;;;;;;;;;;21.09;40.87;101973.38;7354112;19;19927;-56
2023/06/06 09:48:33;;;;;;;;;;;;;;;21.33;41.18;101970.50;7352390;19;19922;-57
2023/06/06 09:50:59;;;;;;;;;;;;;;;21.55;40.72;101975.69;7352606;19;19935;-57
2023/06/06 09:53:27;;;;;;;;;;;;;;;21.79;40.78;101978.91;7353518;19;19923;-57
2023/06/06 09:55:57;;;;;;;;;;;;;;;22.05;40.85;101974.94;7355089;19;20465;-56
2023/06/06 09:58:25;;;;;;;;;;;;;;;22.28;40.57;101978.19;7349513;19;19930;-58
2023/06/06 10:00:52;;;;;;;;;;;;;;;22.55;40.61;101977.69;7352285;19;20003;-57
2023/06/06 10:03:21;;;;;;;;;;;;;;;22.83;40.19;101979.75;7350709;19;19943;-57
2023/06/06 10:05:46;;;;;;;;;;;;;;;23.13;40.10;101981.75;7350282;19;20352;-57
2023/06/06 10:08:12;;;;;;;;;;;;;;;23.40;40.00;101974.00;7354350;19;19919;-57
2023/06/06 10:10:39;;;;;;;;;;;;;;;23.66;40.18;101981.41;7349262;19;19918;-57
2023/06/06 10:13:04;;;;;;;;;;;;;;;23.90;39.72;101978.28;7352096;19;19946;-57
2023/06/06 10:15:30;;;;;;;;;;;;;;;24.14;39.28;101970.66;7351989;19;19930;-57
2023/06/06 10:17:57;;;;;;;;;;;;;;;24.37;39.61;101977.28;7349993;19;19919;-57
2023/06/06 10:20:22;;;;;;;;;;;;;;;24.63;39.64;101968.53;7353605;19;19923;-57
2023/06/06 10:22:47;;;;;;;;;;;;;;;24.91;39.62;101973.03;7350297;19;20364;-58
2023/06/06 10:25:13;;;;;;;;;;;;;;;25.21;39.04;101964.06;7350686;19;19938;-57
2023/06/06 10:27:54;;;;;;;;;;;;;;;25.49;38.96;101969.31;7348345;19;19986;-57
2023/06/06 10:30:20;;;;;;;;;;;;;;;25.84;38.38;101966.16;7350365;19;19926;-57
2023/06/06 10:32:51;;;;;;;;;;;;;;;26.03;37.96;101972.00;7350368;19;20537;-58
2023/06/06 10:35:17;;;;;;;;;;;;;;;26.26;37.87;101942.81;7350090;19;19958;-57
2023/06/06 10:37:59;;;;;;;;;;;;;;;26.45;37.48;101969.19;7351438;19;20525;-57
2023/06/06 10:40:25;;;;;;;;;;;;;;;26.65;37.59;101972.16;7351842;19;19935;-57
2023/06/06 10:42:52;;;;;;;;;;;;;;;26.85;37.40;101968.06;7354450;19;19940;-57
2023/06/06 10:45:38;;;;;;;;;;;;;;;27.05;37.12;101973.84;7357735;19;20483;-57
2023/06/06 10:48:04;;;;;;;;;;;;;;;27.30;37.04;101968.44;7355576;19;19925;-57
2023/06/06 10:50:30;;;;;;;;;;;;;;;27.47;36.64;101967.19;7359273;19;21123;-57
2023/06/06 10:52:58;;;;;;;;;;;;;;;27.65;36.36;101973.88;7348772;19;20073;-58
2023/06/06 10:55:24;;;;;;;;;;;;;;;27.82;36.42;101969.09;7357233;19;19960;-57
2023/06/06 10:58:03;;;;;;;;;;;;;;;28.02;36.36;101979.19;7355852;19;19915;-57
2023/06/06 11:00:33;;;;;;;;;;;;;;;28.22;35.97;101982.16;7359932;19;19925;-57
2023/06/06 11:03:08;;;;;;;;;;;;;;;28.37;35.55;101978.31;7356341;19;20469;-57
2023/06/06 11:05:54;;;;;;;;;;;;;;;28.50;35.61;101976.41;7359361;19;20626;-57
2023/06/06 11:08:30;;;;;;;;;;;;;;;28.66;35.16;101981.44;7359154;19;20157;-57
2023/06/06 11:11:13;;;;;;;;;;;;;;;28.75;34.70;101969.09;7356447;19;19971;-57
2023/06/06 11:13:47;;;;;;;;;;;;;;;28.85;34.48;101970.06;7357430;19;19919;-57
2023/06/06 11:16:13;;;;;;;;;;;;;;;28.90;34.30;101979.47;7356703;19;19939;-57
2023/06/06 11:18:42;;;;;;;;;;;;;;;29.00;34.18;101978.78;7355906;19;21204;-57
2023/06/06 11:21:07;;;;;;;;;;;;;;;29.10;34.13;101980.59;7355838;19;20290;-58
2023/06/06 11:23:42;;;;;;;;;;;;;;;29.25;34.13;101974.94;7356444;19;19956;-57
2023/06/06 11:26:10;;;;;;;;;;;;;;;29.34;34.01;101974.19;7353608;19;19929;-58
2023/06/06 11:28:36;;;;;;;;;;;;;;;29.45;33.65;101979.53;7358219;19;19927;-57
2023/06/06 11:31:02;;;;;;;;;;;;;;;29.58;33.66;101974.88;7355434;19;19918;-57
2023/06/06 11:33:28;;;;;;;;;;;;;;;29.71;33.74;101980.97;7357944;19;20246;-57
2023/06/06 11:35:54;;;;;;;;;;;;;;;29.82;32.76;101981.91;7357741;19;19919;-58
2023/06/06 11:38:19;;;;;;;;;;;;;;;29.83;32.85;101978.22;7356841;19;19919;-57
2023/06/06 11:40:44;;;;;;;;;;;;;;;29.82;32.75;101976.50;7353069;19;20006;-57
2023/06/06 11:43:10;;;;;;;;;;;;;;;29.80;32.57;101973.06;7360242;19;19927;-57
2023/06/06 11:45:35;;;;;;;;;;;;;;;29.72;31.92;101982.66;7357357;19;19919;-57
2023/06/06 11:48:01;;;;;;;;;;;;;;;29.56;31.59;101982.25;7356402;19;19918;-57
2023/06/06 11:50:27;;;;;;;;;;;;;;;29.31;31.68;101979.84;7351757;19;19927;-57
2023/06/06 11:52:52;;;;;;;;;;;;;;;29.06;31.50;101992.56;7355710;19;19935;-57
2023/06/06 11:55:18;;;;;;;;;;;;;;;28.86;31.62;101982.53;7351925;19;19922;-57
2023/06/06 11:57:43;;;;;;;;;;;;;;;28.66;32.01;101987.66;7342994;19;19930;-57
2023/06/06 12:00:17;;;;;;;;;;;;;;;28.49;32.13;101980.06;7357093;19;19927;-57
2023/06/06 12:02:46;;;;;;;;;;;;;;;28.33;31.76;101979.50;7354386;19;19930;-57
2023/06/06 12:05:19;;;;;;;;;;;;;;;28.16;31.64;101989.72;7355491;19;19918;-57
2023/06/06 12:07:45;;;;;;;;;;;;;;;27.96;31.58;101986.84;7356743;19;19925;-57
2023/06/06 12:10:10;;;;;;;;;;;;;;;27.28;31.92;101899.78;7360258;19;20542;-57
2023/06/06 12:12:45;;;;;;;;;;;;;;;27.63;31.94;101981.19;7359645;19;19927;-57
2023/06/06 12:15:10;;;;;;;;;;;;;;;27.52;32.48;101989.16;7354198;19;20346;-58
2023/06/06 12:17:35;;;;;;;;;;;;;;;27.42;32.58;101974.72;7359943;19;19919;-57
2023/06/06 12:20:03;;;;;;;;;;;;;;;27.34;32.23;101979.81;7359719;19;19922;-57
2023/06/06 12:22:33;;;;;;;;;;;;;;;27.26;32.73;101982.19;7357404;19;19952;-57
2023/06/06 12:24:58;;;;;;;;;;;;;;;27.19;32.37;101980.94;7353579;19;20025;-58
2023/06/06 12:27:27;;;;;;;;;;;;;;;27.08;32.47;101987.06;7358540;19;20478;-57
2023/06/06 12:29:54;;;;;;;;;;;;;;;26.96;31.97;101980.72;7359884;19;19922;-57
2023/06/06 12:32:21;;;;;;;;;;;;;;;26.77;32.45;101972.28;7361089;19;19944;-57